sensor_id;sensor_type;location;lat;lon;timestamp;P1;durP1;ratioP1;P2;durP2;ratioP2
1320;SDS011;653;51.480;11.992;2023-08-17T00:02:21;11.60;;;10.40;;
1320;SDS011;653;51.480;11.992;2023-08-17T00:04:47;12.80;;;11.57;;
1320;SDS011;653;51.480;11.992;2023-08-17T00:07:12;13.10;;;11.57;;
1320;SDS011;653;51.480;11.992;2023-08-17T00:09:38;16.70;;;11.37;;
1320;SDS011;653;51.480;11.992;2023-08-17T00:12:04;11.87;;;10.70;;
1320;SDS011;653;51.480;11.992;2023-08-17T00:14:29;15.10;;;10.27;;
1320;SDS011;653;51.480;11.992;2023-08-17T00:16:55;12.80;;;11.60;;
1320;SDS011;653;51.480;11.992;2023-08-17T00:19:21;11.93;;;10.83;;
1320;SDS011;653;51.480;11.992;2023-08-17T00:21:46;12.47;;;10.60;;
1320;SDS011;653;51.480;11.992;2023-08-17T00:24:12;12.33;;;11.23;;
1320;SDS011;653;51.480;11.992;2023-08-17T00:26:37;12.10;;;10.70;;
1320;SDS011;653;51.480;11.992;2023-08-17T00:29:03;11.53;;;10.53;;
1320;SDS011;653;51.480;11.992;2023-08-17T00:31:28;12.83;;;11.60;;
1320;SDS011;653;51.480;11.992;2023-08-17T00:33:54;11.90;;;10.70;;
1320;SDS011;653;51.480;11.992;2023-08-17T00:36:19;12.17;;;11.07;;
1320;SDS011;653;51.480;11.992;2023-08-17T00:38:45;11.50;;;10.40;;
1320;SDS011;653;51.480;11.992;2023-08-17T00:41:10;12.30;;;9.93;;
1320;SDS011;653;51.480;11.992;2023-08-17T00:43:35;11.97;;;10.67;;
1320;SDS011;653;51.480;11.992;2023-08-17T00:46:01;17.60;;;11.47;;
1320;SDS011;653;51.480;11.992;2023-08-17T00:48:27;10.90;;;9.90;;
1320;SDS011;653;51.480;11.992;2023-08-17T00:50:54;11.27;;;10.03;;
1320;SDS011;653;51.480;11.992;2023-08-17T00:53:20;11.40;;;10.40;;
1320;SDS011;653;51.480;11.992;2023-08-17T00:55:46;12.87;;;10.20;;
1320;SDS011;653;51.480;11.992;2023-08-17T00:58:11;14.80;;;11.67;;
1320;SDS011;653;51.480;11.992;2023-08-17T01:00:37;11.40;;;10.40;;
1320;SDS011;653;51.480;11.992;2023-08-17T01:03:02;11.77;;;10.67;;
1320;SDS011;653;51.480;11.992;2023-08-17T01:05:29;11.53;;;10.37;;
1320;SDS011;653;51.480;11.992;2023-08-17T01:07:56;12.00;;;10.73;;
1320;SDS011;653;51.480;11.992;2023-08-17T01:10:21;11.70;;;10.63;;
1320;SDS011;653;51.480;11.992;2023-08-17T01:15:42;11.23;;;9.60;;
1320;SDS011;653;51.480;11.992;2023-08-17T01:20:41;12.17;;;10.97;;
1320;SDS011;653;51.480;11.992;2023-08-17T01:23:08;12.23;;;11.13;;
1320;SDS011;653;51.480;11.992;2023-08-17T01:25:34;11.77;;;10.57;;
1320;SDS011;653;51.480;11.992;2023-08-17T01:28:02;11.33;;;9.50;;
1320;SDS011;653;51.480;11.992;2023-08-17T01:30:28;10.43;;;9.43;;
1320;SDS011;653;51.480;11.992;2023-08-17T01:33:08;10.43;;;9.33;;
1320;SDS011;653;51.480;11.992;2023-08-17T01:35:37;10.50;;;9.50;;
1320;SDS011;653;51.480;11.992;2023-08-17T01:38:07;10.43;;;9.40;;
1320;SDS011;653;51.480;11.992;2023-08-17T01:40:33;10.13;;;9.20;;
1320;SDS011;653;51.480;11.992;2023-08-17T01:42:59;9.60;;;8.57;;
1320;SDS011;653;51.480;11.992;2023-08-17T01:45:25;8.53;;;7.60;;
1320;SDS011;653;51.480;11.992;2023-08-17T01:47:51;6.27;;;5.43;;
1320;SDS011;653;51.480;11.992;2023-08-17T01:50:16;4.57;;;4.17;;
1320;SDS011;653;51.480;11.992;2023-08-17T01:52:42;4.83;;;4.43;;
1320;SDS011;653;51.480;11.992;2023-08-17T01:55:07;2.77;;;2.30;;
1320;SDS011;653;51.480;11.992;2023-08-17T01:57:33;2.57;;;1.33;;
1320;SDS011;653;51.480;11.992;2023-08-17T02:00:00;1.47;;;1.07;;
1320;SDS011;653;51.480;11.992;2023-08-17T02:02:25;11.07;;;2.50;;
1320;SDS011;653;51.480;11.992;2023-08-17T02:04:50;15.67;;;4.17;;
1320;SDS011;653;51.480;11.992;2023-08-17T02:07:16;14.23;;;3.60;;
1320;SDS011;653;51.480;11.992;2023-08-17T02:09:41;18.53;;;3.17;;
1320;SDS011;653;51.480;11.992;2023-08-17T02:12:06;4.43;;;2.37;;
1320;SDS011;653;51.480;11.992;2023-08-17T02:14:33;11.47;;;3.27;;
1320;SDS011;653;51.480;11.992;2023-08-17T02:16:58;3.23;;;2.67;;
1320;SDS011;653;51.480;11.992;2023-08-17T02:19:24;10.20;;;3.20;;
1320;SDS011;653;51.480;11.992;2023-08-17T02:21:49;5.40;;;2.60;;
1320;SDS011;653;51.480;11.992;2023-08-17T02:24:15;4.73;;;2.90;;
1320;SDS011;653;51.480;11.992;2023-08-17T02:26:40;5.57;;;2.80;;
1320;SDS011;653;51.480;11.992;2023-08-17T02:29:05;9.30;;;4.23;;
1320;SDS011;653;51.480;11.992;2023-08-17T02:31:31;2.57;;;2.37;;
1320;SDS011;653;51.480;11.992;2023-08-17T02:33:56;4.73;;;2.83;;
1320;SDS011;653;51.480;11.992;2023-08-17T02:36:30;6.03;;;2.83;;
1320;SDS011;653;51.480;11.992;2023-08-17T02:38:56;7.10;;;3.20;;
1320;SDS011;653;51.480;11.992;2023-08-17T02:41:21;5.43;;;3.30;;
1320;SDS011;653;51.480;11.992;2023-08-17T02:43:47;5.00;;;3.47;;
1320;SDS011;653;51.480;11.992;2023-08-17T02:46:12;8.37;;;4.23;;
1320;SDS011;653;51.480;11.992;2023-08-17T02:48:38;5.53;;;4.90;;
1320;SDS011;653;51.480;11.992;2023-08-17T02:51:03;5.97;;;3.50;;
1320;SDS011;653;51.480;11.992;2023-08-17T02:53:29;6.43;;;4.10;;
1320;SDS011;653;51.480;11.992;2023-08-17T02:55:54;4.40;;;4.00;;
1320;SDS011;653;51.480;11.992;2023-08-17T02:58:19;8.30;;;4.40;;
1320;SDS011;653;51.480;11.992;2023-08-17T03:00:45;11.00;;;4.80;;
1320;SDS011;653;51.480;11.992;2023-08-17T03:03:10;5.83;;;4.50;;
1320;SDS011;653;51.480;11.992;2023-08-17T03:05:35;5.60;;;4.30;;
1320;SDS011;653;51.480;11.992;2023-08-17T03:08:01;7.70;;;3.97;;
1320;SDS011;653;51.480;11.992;2023-08-17T03:10:26;7.10;;;4.20;;
1320;SDS011;653;51.480;11.992;2023-08-17T03:12:52;7.13;;;4.53;;
1320;SDS011;653;51.480;11.992;2023-08-17T03:15:17;5.93;;;4.37;;
1320;SDS011;653;51.480;11.992;2023-08-17T03:17:42;6.33;;;4.40;;
1320;SDS011;653;51.480;11.992;2023-08-17T03:20:08;6.50;;;4.20;;
1320;SDS011;653;51.480;11.992;2023-08-17T03:22:34;8.17;;;5.10;;
1320;SDS011;653;51.480;11.992;2023-08-17T03:24:59;7.03;;;4.67;;
1320;SDS011;653;51.480;11.992;2023-08-17T03:27:25;5.60;;;4.50;;
1320;SDS011;653;51.480;11.992;2023-08-17T03:29:51;6.33;;;4.30;;
1320;SDS011;653;51.480;11.992;2023-08-17T03:32:16;6.67;;;4.50;;
1320;SDS011;653;51.480;11.992;2023-08-17T03:34:42;8.10;;;4.40;;
1320;SDS011;653;51.480;11.992;2023-08-17T03:37:07;9.30;;;4.90;;
1320;SDS011;653;51.480;11.992;2023-08-17T03:39:33;5.87;;;4.30;;
1320;SDS011;653;51.480;11.992;2023-08-17T03:41:58;7.60;;;4.83;;
1320;SDS011;653;51.480;11.992;2023-08-17T03:44:24;5.60;;;4.23;;
1320;SDS011;653;51.480;11.992;2023-08-17T03:46:49;7.37;;;4.10;;
1320;SDS011;653;51.480;11.992;2023-08-17T03:49:14;5.40;;;4.83;;
1320;SDS011;653;51.480;11.992;2023-08-17T03:51:40;7.53;;;4.07;;
1320;SDS011;653;51.480;11.992;2023-08-17T03:54:06;5.60;;;4.20;;
1320;SDS011;653;51.480;11.992;2023-08-17T03:56:31;5.33;;;4.10;;
1320;SDS011;653;51.480;11.992;2023-08-17T03:58:56;5.17;;;4.00;;
1320;SDS011;653;51.480;11.992;2023-08-17T04:01:22;5.50;;;3.27;;
1320;SDS011;653;51.480;11.992;2023-08-17T04:03:47;4.53;;;3.10;;
1320;SDS011;653;51.480;11.992;2023-08-17T04:06:13;3.33;;;2.93;;
1320;SDS011;653;51.480;11.992;2023-08-17T04:08:39;5.60;;;3.87;;
1320;SDS011;653;51.480;11.992;2023-08-17T04:11:04;5.03;;;3.10;;
1320;SDS011;653;51.480;11.992;2023-08-17T04:13:30;5.40;;;3.87;;
1320;SDS011;653;51.480;11.992;2023-08-17T04:15:56;5.43;;;3.77;;
1320;SDS011;653;51.480;11.992;2023-08-17T04:18:21;9.87;;;3.40;;
1320;SDS011;653;51.480;11.992;2023-08-17T04:20:47;7.20;;;4.10;;
1320;SDS011;653;51.480;11.992;2023-08-17T04:23:12;4.67;;;4.00;;
1320;SDS011;653;51.480;11.992;2023-08-17T04:25:37;7.80;;;5.10;;
1320;SDS011;653;51.480;11.992;2023-08-17T04:28:03;7.07;;;5.50;;
1320;SDS011;653;51.480;11.992;2023-08-17T04:30:29;6.07;;;4.57;;
1320;SDS011;653;51.480;11.992;2023-08-17T04:32:54;4.93;;;4.43;;
1320;SDS011;653;51.480;11.992;2023-08-17T04:35:20;8.20;;;5.47;;
1320;SDS011;653;51.480;11.992;2023-08-17T04:37:46;4.80;;;4.30;;
1320;SDS011;653;51.480;11.992;2023-08-17T04:40:12;5.10;;;3.90;;
1320;SDS011;653;51.480;11.992;2023-08-17T04:42:38;4.30;;;3.37;;
1320;SDS011;653;51.480;11.992;2023-08-17T04:45:03;5.40;;;4.50;;
1320;SDS011;653;51.480;11.992;2023-08-17T04:47:29;4.50;;;3.80;;
1320;SDS011;653;51.480;11.992;2023-08-17T04:49:54;5.57;;;4.30;;
1320;SDS011;653;51.480;11.992;2023-08-17T04:52:19;6.53;;;4.37;;
1320;SDS011;653;51.480;11.992;2023-08-17T04:54:45;8.67;;;4.10;;
1320;SDS011;653;51.480;11.992;2023-08-17T04:57:10;5.83;;;4.33;;
1320;SDS011;653;51.480;11.992;2023-08-17T04:59:36;5.13;;;4.63;;
1320;SDS011;653;51.480;11.992;2023-08-17T05:02:02;7.50;;;5.30;;
1320;SDS011;653;51.480;11.992;2023-08-17T05:04:29;8.50;;;5.67;;
1320;SDS011;653;51.480;11.992;2023-08-17T05:06:55;6.90;;;6.07;;
1320;SDS011;653;51.480;11.992;2023-08-17T05:09:20;8.27;;;4.90;;
1320;SDS011;653;51.480;11.992;2023-08-17T05:11:46;6.70;;;4.73;;
1320;SDS011;653;51.480;11.992;2023-08-17T05:14:12;6.53;;;4.50;;
1320;SDS011;653;51.480;11.992;2023-08-17T05:16:37;6.93;;;4.63;;
1320;SDS011;653;51.480;11.992;2023-08-17T05:19:03;5.43;;;3.90;;
1320;SDS011;653;51.480;11.992;2023-08-17T05:21:28;10.03;;;3.83;;
1320;SDS011;653;51.480;11.992;2023-08-17T05:23:54;4.70;;;3.73;;
1320;SDS011;653;51.480;11.992;2023-08-17T05:26:20;4.90;;;3.53;;
1320;SDS011;653;51.480;11.992;2023-08-17T05:28:45;3.77;;;3.10;;
1320;SDS011;653;51.480;11.992;2023-08-17T05:31:11;5.30;;;3.00;;
1320;SDS011;653;51.480;11.992;2023-08-17T05:33:36;4.90;;;3.83;;
1320;SDS011;653;51.480;11.992;2023-08-17T05:36:02;6.40;;;3.30;;
1320;SDS011;653;51.480;11.992;2023-08-17T05:38:28;5.60;;;4.30;;
1320;SDS011;653;51.480;11.992;2023-08-17T05:40:56;4.10;;;3.20;;
1320;SDS011;653;51.480;11.992;2023-08-17T05:43:23;3.17;;;2.87;;
1320;SDS011;653;51.480;11.992;2023-08-17T05:45:49;4.93;;;3.13;;
1320;SDS011;653;51.480;11.992;2023-08-17T05:48:14;5.23;;;2.50;;
1320;SDS011;653;51.480;11.992;2023-08-17T05:50:43;4.17;;;3.57;;
1320;SDS011;653;51.480;11.992;2023-08-17T05:53:09;5.93;;;3.80;;
1320;SDS011;653;51.480;11.992;2023-08-17T05:55:35;3.90;;;3.10;;
1320;SDS011;653;51.480;11.992;2023-08-17T05:58:00;3.60;;;3.30;;
1320;SDS011;653;51.480;11.992;2023-08-17T06:00:26;5.73;;;3.83;;
1320;SDS011;653;51.480;11.992;2023-08-17T06:02:52;4.57;;;3.17;;
1320;SDS011;653;51.480;11.992;2023-08-17T06:05:17;4.83;;;3.43;;
1320;SDS011;653;51.480;11.992;2023-08-17T06:07:43;3.90;;;3.50;;
1320;SDS011;653;51.480;11.992;2023-08-17T06:10:09;6.00;;;3.70;;
1320;SDS011;653;51.480;11.992;2023-08-17T06:12:36;6.30;;;4.33;;
1320;SDS011;653;51.480;11.992;2023-08-17T06:15:02;3.63;;;3.27;;
1320;SDS011;653;51.480;11.992;2023-08-17T06:17:28;5.30;;;4.60;;
1320;SDS011;653;51.480;11.992;2023-08-17T06:19:54;6.73;;;4.80;;
1320;SDS011;653;51.480;11.992;2023-08-17T06:22:19;4.93;;;4.43;;
1320;SDS011;653;51.480;11.992;2023-08-17T06:24:45;4.40;;;4.00;;
1320;SDS011;653;51.480;11.992;2023-08-17T06:27:14;5.80;;;4.93;;
1320;SDS011;653;51.480;11.992;2023-08-17T06:29:40;5.93;;;4.27;;
1320;SDS011;653;51.480;11.992;2023-08-17T06:32:06;4.90;;;4.23;;
1320;SDS011;653;51.480;11.992;2023-08-17T06:34:31;4.63;;;4.13;;
1320;SDS011;653;51.480;11.992;2023-08-17T06:36:58;5.80;;;4.77;;
1320;SDS011;653;51.480;11.992;2023-08-17T06:39:24;4.83;;;4.17;;
1320;SDS011;653;51.480;11.992;2023-08-17T06:41:50;4.37;;;3.97;;
1320;SDS011;653;51.480;11.992;2023-08-17T06:44:15;5.10;;;4.70;;
1320;SDS011;653;51.480;11.992;2023-08-17T06:46:41;6.23;;;4.37;;
1320;SDS011;653;51.480;11.992;2023-08-17T06:49:06;4.80;;;4.00;;
1320;SDS011;653;51.480;11.992;2023-08-17T06:51:33;4.83;;;4.13;;
1320;SDS011;653;51.480;11.992;2023-08-17T06:53:58;5.50;;;4.00;;
1320;SDS011;653;51.480;11.992;2023-08-17T06:56:24;4.00;;;3.60;;
1320;SDS011;653;51.480;11.992;2023-08-17T06:58:50;4.33;;;3.93;;
1320;SDS011;653;51.480;11.992;2023-08-17T07:01:15;3.03;;;2.70;;
1320;SDS011;653;51.480;11.992;2023-08-17T07:03:41;3.73;;;3.40;;
1320;SDS011;653;51.480;11.992;2023-08-17T07:06:06;5.40;;;3.97;;
1320;SDS011;653;51.480;11.992;2023-08-17T07:08:35;3.60;;;3.10;;
1320;SDS011;653;51.480;11.992;2023-08-17T07:11:01;4.00;;;3.60;;
1320;SDS011;653;51.480;11.992;2023-08-17T07:13:28;4.30;;;3.90;;
1320;SDS011;653;51.480;11.992;2023-08-17T07:15:54;4.30;;;3.67;;
1320;SDS011;653;51.480;11.992;2023-08-17T07:18:20;4.47;;;4.17;;
1320;SDS011;653;51.480;11.992;2023-08-17T07:20:45;5.30;;;4.80;;
1320;SDS011;653;51.480;11.992;2023-08-17T07:23:11;5.60;;;4.57;;
1320;SDS011;653;51.480;11.992;2023-08-17T07:25:36;6.17;;;5.10;;
1320;SDS011;653;51.480;11.992;2023-08-17T07:28:02;6.10;;;5.50;;
1320;SDS011;653;51.480;11.992;2023-08-17T07:30:27;6.03;;;5.43;;
1320;SDS011;653;51.480;11.992;2023-08-17T07:32:53;6.20;;;5.70;;
1320;SDS011;653;51.480;11.992;2023-08-17T07:35:18;6.83;;;6.13;;
1320;SDS011;653;51.480;11.992;2023-08-17T07:37:44;7.00;;;6.47;;
1320;SDS011;653;51.480;11.992;2023-08-17T07:40:09;6.93;;;6.37;;
1320;SDS011;653;51.480;11.992;2023-08-17T07:42:35;7.27;;;6.60;;
1320;SDS011;653;51.480;11.992;2023-08-17T07:45:02;7.07;;;6.40;;
1320;SDS011;653;51.480;11.992;2023-08-17T07:47:31;8.17;;;7.47;;
1320;SDS011;653;51.480;11.992;2023-08-17T07:49:56;7.37;;;6.67;;
1320;SDS011;653;51.480;11.992;2023-08-17T07:52:23;8.30;;;7.60;;
1320;SDS011;653;51.480;11.992;2023-08-17T07:54:48;8.47;;;7.80;;
1320;SDS011;653;51.480;11.992;2023-08-17T07:57:13;8.70;;;7.83;;
1320;SDS011;653;51.480;11.992;2023-08-17T07:59:39;11.37;;;8.07;;
1320;SDS011;653;51.480;11.992;2023-08-17T08:02:04;8.97;;;8.07;;
1320;SDS011;653;51.480;11.992;2023-08-17T08:04:30;9.93;;;9.03;;
1320;SDS011;653;51.480;11.992;2023-08-17T08:06:55;8.70;;;7.90;;
1320;SDS011;653;51.480;11.992;2023-08-17T08:09:21;9.60;;;8.10;;
1320;SDS011;653;51.480;11.992;2023-08-17T08:11:46;8.47;;;7.73;;
1320;SDS011;653;51.480;11.992;2023-08-17T08:14:11;8.53;;;7.80;;
1320;SDS011;653;51.480;11.992;2023-08-17T08:16:37;8.83;;;8.10;;
1320;SDS011;653;51.480;11.992;2023-08-17T08:19:05;8.90;;;8.10;;
1320;SDS011;653;51.480;11.992;2023-08-17T08:21:30;9.07;;;7.60;;
1320;SDS011;653;51.480;11.992;2023-08-17T08:23:56;9.70;;;8.90;;
1320;SDS011;653;51.480;11.992;2023-08-17T08:26:21;8.50;;;7.80;;
1320;SDS011;653;51.480;11.992;2023-08-17T08:28:47;8.80;;;8.00;;
1320;SDS011;653;51.480;11.992;2023-08-17T08:31:12;8.70;;;7.90;;
1320;SDS011;653;51.480;11.992;2023-08-17T08:33:38;9.83;;;8.93;;
1320;SDS011;653;51.480;11.992;2023-08-17T08:36:03;9.23;;;8.40;;
1320;SDS011;653;51.480;11.992;2023-08-17T08:38:31;8.77;;;7.87;;
1320;SDS011;653;51.480;11.992;2023-08-17T08:40:56;9.73;;;8.77;;
1320;SDS011;653;51.480;11.992;2023-08-17T08:43:22;9.00;;;8.30;;
1320;SDS011;653;51.480;11.992;2023-08-17T08:45:48;9.07;;;8.30;;
1320;SDS011;653;51.480;11.992;2023-08-17T08:48:14;9.50;;;8.50;;
1320;SDS011;653;51.480;11.992;2023-08-17T08:50:41;9.60;;;8.70;;
1320;SDS011;653;51.480;11.992;2023-08-17T08:53:17;8.97;;;8.20;;
1320;SDS011;653;51.480;11.992;2023-08-17T08:56:11;9.60;;;8.80;;
1320;SDS011;653;51.480;11.992;2023-08-17T08:58:40;9.90;;;9.00;;
1320;SDS011;653;51.480;11.992;2023-08-17T09:01:05;8.20;;;7.50;;
1320;SDS011;653;51.480;11.992;2023-08-17T09:03:31;8.50;;;7.80;;
1320;SDS011;653;51.480;11.992;2023-08-17T09:05:57;9.80;;;8.90;;
1320;SDS011;653;51.480;11.992;2023-08-17T09:08:25;9.47;;;8.60;;
1320;SDS011;653;51.480;11.992;2023-08-17T09:10:52;7.80;;;7.10;;
1320;SDS011;653;51.480;11.992;2023-08-17T09:13:18;8.97;;;8.17;;
1320;SDS011;653;51.480;11.992;2023-08-17T09:15:44;8.90;;;8.10;;
1320;SDS011;653;51.480;11.992;2023-08-17T09:18:09;10.20;;;9.20;;
1320;SDS011;653;51.480;11.992;2023-08-17T09:20:39;9.00;;;8.20;;
1320;SDS011;653;51.480;11.992;2023-08-17T09:23:16;10.00;;;9.00;;
1320;SDS011;653;51.480;11.992;2023-08-17T09:25:45;9.37;;;8.33;;
1320;SDS011;653;51.480;11.992;2023-08-17T09:28:12;9.63;;;8.83;;
1320;SDS011;653;51.480;11.992;2023-08-17T09:30:52;12.17;;;10.37;;
1320;SDS011;653;51.480;11.992;2023-08-17T09:33:22;12.57;;;10.57;;
1320;SDS011;653;51.480;11.992;2023-08-17T09:35:51;11.77;;;10.77;;
1320;SDS011;653;51.480;11.992;2023-08-17T09:38:18;11.93;;;10.77;;
1320;SDS011;653;51.480;11.992;2023-08-17T09:40:44;11.50;;;10.60;;
1320;SDS011;653;51.480;11.992;2023-08-17T09:43:10;10.47;;;9.57;;
1320;SDS011;653;51.480;11.992;2023-08-17T09:45:39;11.80;;;10.60;;
1320;SDS011;653;51.480;11.992;2023-08-17T09:48:07;8.63;;;7.93;;
1320;SDS011;653;51.480;11.992;2023-08-17T09:50:45;9.60;;;8.70;;
1320;SDS011;653;51.480;11.992;2023-08-17T09:53:12;9.83;;;8.93;;
1320;SDS011;653;51.480;11.992;2023-08-17T09:55:42;9.23;;;8.53;;
1320;SDS011;653;51.480;11.992;2023-08-17T09:58:12;11.97;;;10.83;;
1320;SDS011;653;51.480;11.992;2023-08-17T10:00:44;11.17;;;10.17;;
1320;SDS011;653;51.480;11.992;2023-08-17T10:03:11;13.63;;;12.50;;
1320;SDS011;653;51.480;11.992;2023-08-17T10:05:39;13.70;;;12.37;;
1320;SDS011;653;51.480;11.992;2023-08-17T10:08:06;13.20;;;12.00;;
1320;SDS011;653;51.480;11.992;2023-08-17T10:10:33;11.13;;;10.23;;
1320;SDS011;653;51.480;11.992;2023-08-17T10:13:04;10.07;;;9.20;;
1320;SDS011;653;51.480;11.992;2023-08-17T10:18:34;11.50;;;10.40;;
1320;SDS011;653;51.480;11.992;2023-08-17T10:21:04;11.97;;;10.40;;
1320;SDS011;653;51.480;11.992;2023-08-17T10:23:31;11.40;;;10.50;;
1320;SDS011;653;51.480;11.992;2023-08-17T10:25:58;11.00;;;9.90;;
1320;SDS011;653;51.480;11.992;2023-08-17T10:28:26;11.73;;;10.77;;
1320;SDS011;653;51.480;11.992;2023-08-17T10:30:52;12.40;;;11.30;;
1320;SDS011;653;51.480;11.992;2023-08-17T10:33:17;14.20;;;13.10;;
1320;SDS011;653;51.480;11.992;2023-08-17T10:35:43;10.83;;;9.93;;
1320;SDS011;653;51.480;11.992;2023-08-17T10:38:09;10.20;;;9.47;;
1320;SDS011;653;51.480;11.992;2023-08-17T10:40:36;10.93;;;10.00;;
1320;SDS011;653;51.480;11.992;2023-08-17T10:43:02;11.83;;;10.70;;
1320;SDS011;653;51.480;11.992;2023-08-17T10:45:29;10.17;;;9.37;;
1320;SDS011;653;51.480;11.992;2023-08-17T10:50:36;10.87;;;9.77;;
1320;SDS011;653;51.480;11.992;2023-08-17T10:53:12;11.33;;;10.53;;
1320;SDS011;653;51.480;11.992;2023-08-17T10:55:44;12.00;;;11.07;;
1320;SDS011;653;51.480;11.992;2023-08-17T10:58:10;10.73;;;9.93;;
1320;SDS011;653;51.480;11.992;2023-08-17T11:00:37;13.30;;;11.97;;
1320;SDS011;653;51.480;11.992;2023-08-17T11:03:07;12.90;;;11.90;;
1320;SDS011;653;51.480;11.992;2023-08-17T11:05:37;11.63;;;10.63;;
1320;SDS011;653;51.480;11.992;2023-08-17T11:08:07;15.33;;;13.90;;
1320;SDS011;653;51.480;11.992;2023-08-17T11:10:34;12.10;;;11.00;;
1320;SDS011;653;51.480;11.992;2023-08-17T11:13:00;13.43;;;12.43;;
1320;SDS011;653;51.480;11.992;2023-08-17T11:15:36;11.60;;;10.63;;
1320;SDS011;653;51.480;11.992;2023-08-17T11:18:05;13.80;;;12.60;;
1320;SDS011;653;51.480;11.992;2023-08-17T11:20:32;13.70;;;12.50;;
1320;SDS011;653;51.480;11.992;2023-08-17T11:22:58;14.13;;;13.13;;
1320;SDS011;653;51.480;11.992;2023-08-17T11:25:25;13.20;;;12.10;;
1320;SDS011;653;51.480;11.992;2023-08-17T11:27:51;13.40;;;12.10;;
1320;SDS011;653;51.480;11.992;2023-08-17T11:30:17;13.70;;;12.60;;
1320;SDS011;653;51.480;11.992;2023-08-17T11:32:43;15.17;;;13.77;;
1320;SDS011;653;51.480;11.992;2023-08-17T11:35:08;14.13;;;13.03;;
1320;SDS011;653;51.480;11.992;2023-08-17T11:37:33;12.47;;;11.47;;
1320;SDS011;653;51.480;11.992;2023-08-17T11:40:02;13.67;;;12.77;;
1320;SDS011;653;51.480;11.992;2023-08-17T11:42:27;13.67;;;12.57;;
1320;SDS011;653;51.480;11.992;2023-08-17T11:44:53;13.47;;;12.23;;
1320;SDS011;653;51.480;11.992;2023-08-17T11:47:18;13.73;;;12.53;;
1320;SDS011;653;51.480;11.992;2023-08-17T11:49:47;12.10;;;11.10;;
1320;SDS011;653;51.480;11.992;2023-08-17T11:52:13;12.80;;;11.70;;
1320;SDS011;653;51.480;11.992;2023-08-17T11:54:41;12.80;;;11.80;;
1320;SDS011;653;51.480;11.992;2023-08-17T11:57:07;11.57;;;10.57;;
1320;SDS011;653;51.480;11.992;2023-08-17T11:59:32;13.80;;;12.57;;
1320;SDS011;653;51.480;11.992;2023-08-17T12:01:58;12.20;;;11.30;;
1320;SDS011;653;51.480;11.992;2023-08-17T12:04:24;11.30;;;10.30;;
1320;SDS011;653;51.480;11.992;2023-08-17T12:06:50;10.60;;;9.60;;
1320;SDS011;653;51.480;11.992;2023-08-17T12:09:15;11.70;;;10.70;;
1320;SDS011;653;51.480;11.992;2023-08-17T12:11:41;10.53;;;9.73;;
1320;SDS011;653;51.480;11.992;2023-08-17T12:14:10;12.40;;;11.27;;
1320;SDS011;653;51.480;11.992;2023-08-17T12:16:45;10.93;;;10.00;;
1320;SDS011;653;51.480;11.992;2023-08-17T12:19:11;10.00;;;8.93;;
1320;SDS011;653;51.480;11.992;2023-08-17T12:21:37;10.77;;;9.97;;
1320;SDS011;653;51.480;11.992;2023-08-17T12:24:03;10.17;;;9.40;;
1320;SDS011;653;51.480;11.992;2023-08-17T12:26:29;9.90;;;8.95;;
1320;SDS011;653;51.480;11.992;2023-08-17T12:28:57;10.35;;;9.45;;
1320;SDS011;653;51.480;11.992;2023-08-17T12:31:23;10.32;;;9.52;;
1320;SDS011;653;51.480;11.992;2023-08-17T12:33:48;10.75;;;9.85;;
1320;SDS011;653;51.480;11.992;2023-08-17T12:36:14;9.60;;;8.80;;
1320;SDS011;653;51.480;11.992;2023-08-17T12:38:39;10.20;;;9.13;;
1320;SDS011;653;51.480;11.992;2023-08-17T12:41:10;9.50;;;8.73;;
1320;SDS011;653;51.480;11.992;2023-08-17T12:43:36;11.10;;;8.95;;
1320;SDS011;653;51.480;11.992;2023-08-17T12:46:02;10.20;;;9.18;;
1320;SDS011;653;51.480;11.992;2023-08-17T12:48:28;9.70;;;8.90;;
1320;SDS011;653;51.480;11.992;2023-08-17T12:50:55;10.00;;;9.20;;
1320;SDS011;653;51.480;11.992;2023-08-17T12:53:21;9.63;;;9.02;;
1320;SDS011;653;51.480;11.992;2023-08-17T12:55:47;10.80;;;8.77;;
1320;SDS011;653;51.480;11.992;2023-08-17T12:58:12;9.87;;;9.17;;
1320;SDS011;653;51.480;11.992;2023-08-17T13:00:38;9.40;;;8.70;;
1320;SDS011;653;51.480;11.992;2023-08-17T13:03:03;11.80;;;9.00;;
1320;SDS011;653;51.480;11.992;2023-08-17T13:05:29;8.90;;;8.30;;
1320;SDS011;653;51.480;11.992;2023-08-17T13:07:54;10.60;;;9.18;;
1320;SDS011;653;51.480;11.992;2023-08-17T13:10:20;10.32;;;9.40;;
1320;SDS011;653;51.480;11.992;2023-08-17T13:12:45;10.00;;;9.25;;
1320;SDS011;653;51.480;11.992;2023-08-17T13:15:12;8.88;;;8.25;;
1320;SDS011;653;51.480;11.992;2023-08-17T13:17:38;9.45;;;8.75;;
1320;SDS011;653;51.480;11.992;2023-08-17T13:20:04;9.68;;;8.88;;
1320;SDS011;653;51.480;11.992;2023-08-17T13:22:31;9.18;;;8.50;;
1320;SDS011;653;51.480;11.992;2023-08-17T13:24:56;9.52;;;8.90;;
1320;SDS011;653;51.480;11.992;2023-08-17T13:27:22;9.60;;;8.93;;
1320;SDS011;653;51.480;11.992;2023-08-17T13:29:47;10.05;;;9.23;;
1320;SDS011;653;51.480;11.992;2023-08-17T13:32:13;8.45;;;7.78;;
1320;SDS011;653;51.480;11.992;2023-08-17T13:34:38;9.52;;;8.73;;
1320;SDS011;653;51.480;11.992;2023-08-17T13:37:04;10.05;;;9.18;;
1320;SDS011;653;51.480;11.992;2023-08-17T13:39:29;10.75;;;9.80;;
1320;SDS011;653;51.480;11.992;2023-08-17T13:41:54;9.30;;;8.60;;
1320;SDS011;653;51.480;11.992;2023-08-17T13:44:20;9.70;;;8.90;;
1320;SDS011;653;51.480;11.992;2023-08-17T13:46:45;9.88;;;8.98;;
1320;SDS011;653;51.480;11.992;2023-08-17T13:49:11;9.40;;;8.70;;
1320;SDS011;653;51.480;11.992;2023-08-17T13:51:36;9.52;;;8.82;;
1320;SDS011;653;51.480;11.992;2023-08-17T13:54:01;9.68;;;8.85;;
1320;SDS011;653;51.480;11.992;2023-08-17T13:56:27;9.60;;;8.77;;
1320;SDS011;653;51.480;11.992;2023-08-17T13:58:52;9.50;;;8.20;;
1320;SDS011;653;51.480;11.992;2023-08-17T14:01:18;9.63;;;8.68;;
1320;SDS011;653;51.480;11.992;2023-08-17T14:03:44;8.93;;;8.25;;
1320;SDS011;653;51.480;11.992;2023-08-17T14:06:10;9.45;;;8.57;;
1320;SDS011;653;51.480;11.992;2023-08-17T14:08:36;8.48;;;7.85;;
1320;SDS011;653;51.480;11.992;2023-08-17T14:11:01;9.93;;;9.13;;
1320;SDS011;653;51.480;11.992;2023-08-17T14:13:27;10.10;;;9.20;;
1320;SDS011;653;51.480;11.992;2023-08-17T14:15:53;9.70;;;8.95;;
1320;SDS011;653;51.480;11.992;2023-08-17T14:18:21;10.60;;;9.75;;
1320;SDS011;653;51.480;11.992;2023-08-17T14:20:47;10.02;;;9.23;;
1320;SDS011;653;51.480;11.992;2023-08-17T14:23:12;10.65;;;9.85;;
1320;SDS011;653;51.480;11.992;2023-08-17T14:25:38;10.38;;;9.68;;
1320;SDS011;653;51.480;11.992;2023-08-17T14:28:03;10.50;;;9.68;;
1320;SDS011;653;51.480;11.992;2023-08-17T14:30:31;13.95;;;10.10;;
1320;SDS011;653;51.480;11.992;2023-08-17T14:32:57;10.23;;;9.45;;
1320;SDS011;653;51.480;11.992;2023-08-17T14:35:23;11.77;;;10.88;;
1320;SDS011;653;51.480;11.992;2023-08-17T14:37:48;11.80;;;10.75;;
1320;SDS011;653;51.480;11.992;2023-08-17T14:40:14;11.32;;;10.25;;
1320;SDS011;653;51.480;11.992;2023-08-17T14:42:39;10.82;;;10.02;;
1320;SDS011;653;51.480;11.992;2023-08-17T14:45:05;11.50;;;10.40;;
1320;SDS011;653;51.480;11.992;2023-08-17T14:47:35;12.27;;;11.18;;
1320;SDS011;653;51.480;11.992;2023-08-17T14:50:00;10.93;;;10.10;;
1320;SDS011;653;51.480;11.992;2023-08-17T14:52:25;11.30;;;10.20;;
1320;SDS011;653;51.480;11.992;2023-08-17T14:54:51;12.00;;;10.70;;
1320;SDS011;653;51.480;11.992;2023-08-17T14:57:17;10.93;;;10.13;;
1320;SDS011;653;51.480;11.992;2023-08-17T14:59:42;10.77;;;9.73;;
1320;SDS011;653;51.480;11.992;2023-08-17T15:02:07;11.93;;;10.70;;
1320;SDS011;653;51.480;11.992;2023-08-17T15:04:35;10.50;;;9.70;;
1320;SDS011;653;51.480;11.992;2023-08-17T15:07:03;11.90;;;10.90;;
1320;SDS011;653;51.480;11.992;2023-08-17T15:09:35;12.47;;;11.10;;
1320;SDS011;653;51.480;11.992;2023-08-17T15:12:03;10.60;;;9.80;;